sensor_id;sensor_type;location;lat;lon;timestamp;pressure;altitude;pressure_sealevel;temperature;humidity
20156;BME280;10238;49.556;10.956;2023-07-31T00:00:06;98273.69;;;15.93;100.00
20156;BME280;10238;49.556;10.956;2023-07-31T00:02:55;98267.44;;;15.86;100.00
20156;BME280;10238;49.556;10.956;2023-07-31T00:05:44;98264.75;;;15.86;100.00
20156;BME280;10238;49.556;10.956;2023-07-31T00:08:32;98260.03;;;15.88;100.00
20156;BME280;10238;49.556;10.956;2023-07-31T00:11:19;98254.69;;;15.88;100.00
20156;BME280;10238;49.556;10.956;2023-07-31T00:14:07;98255.31;;;15.90;100.00
20156;BME280;10238;49.556;10.956;2023-07-31T00:16:55;98247.25;;;15.90;100.00
20156;BME280;10238;49.556;10.956;2023-07-31T00:19:43;98245.63;;;15.89;100.00
20156;BME280;10238;49.556;10.956;2023-07-31T00:22:32;98246.38;;;15.83;100.00
20156;BME280;10238;49.556;10.956;2023-07-31T00:25:20;98241.00;;;15.83;100.00
20156;BME280;10238;49.556;10.956;2023-07-31T00:28:07;98238.06;;;15.78;100.00
20156;BME280;10238;49.556;10.956;2023-07-31T00:30:56;98245.66;;;15.74;100.00
20156;BME280;10238;49.556;10.956;2023-07-31T00:33:45;98249.19;;;15.75;100.00
20156;BME280;10238;49.556;10.956;2023-07-31T00:36:33;98254.13;;;15.78;100.00
20156;BME280;10238;49.556;10.956;2023-07-31T00:39:20;98243.41;;;15.78;100.00
20156;BME280;10238;49.556;10.956;2023-07-31T00:42:08;98251.72;;;15.83;100.00
20156;BME280;10238;49.556;10.956;2023-07-31T00:44:55;98239.59;;;15.87;100.00
20156;BME280;10238;49.556;10.956;2023-07-31T00:47:43;98243.16;;;15.94;100.00
20156;BME280;10238;49.556;10.956;2023-07-31T00:50:33;98234.38;;;16.00;100.00
20156;BME280;10238;49.556;10.956;2023-07-31T00:53:22;98238.34;;;16.04;100.00
20156;BME280;10238;49.556;10.956;2023-07-31T00:56:12;98240.84;;;16.05;100.00
20156;BME280;10238;49.556;10.956;2023-07-31T00:59:00;98239.63;;;16.08;100.00
20156;BME280;10238;49.556;10.956;2023-07-31T01:01:47;98231.81;;;16.13;100.00
20156;BME280;10238;49.556;10.956;2023-07-31T01:04:35;98228.53;;;16.17;100.00
20156;BME280;10238;49.556;10.956;2023-07-31T01:07:30;98229.38;;;16.18;100.00
20156;BME280;10238;49.556;10.956;2023-07-31T01:10:26;98212.91;;;16.21;100.00
20156;BME280;10238;49.556;10.956;2023-07-31T01:13:18;98221.41;;;16.24;100.00
20156;BME280;10238;49.556;10.956;2023-07-31T01:16:06;98215.66;;;16.27;100.00
20156;BME280;10238;49.556;10.956;2023-07-31T01:18:54;98220.00;;;16.28;100.00
20156;BME280;10238;49.556;10.956;2023-07-31T01:22:03;98227.00;;;16.29;100.00
20156;BME280;10238;49.556;10.956;2023-07-31T01:25:16;98217.94;;;16.30;100.00
20156;BME280;10238;49.556;10.956;2023-07-31T01:28:17;98215.06;;;16.32;100.00
20156;BME280;10238;49.556;10.956;2023-07-31T01:31:10;98214.25;;;16.31;100.00
20156;BME280;10238;49.556;10.956;2023-07-31T01:34:01;98213.84;;;16.34;100.00
20156;BME280;10238;49.556;10.956;2023-07-31T01:36:49;98205.63;;;16.36;100.00
20156;BME280;10238;49.556;10.956;2023-07-31T01:39:37;98207.25;;;16.37;100.00
20156;BME280;10238;49.556;10.956;2023-07-31T01:42:25;98200.25;;;16.36;100.00
20156;BME280;10238;49.556;10.956;2023-07-31T01:45:14;98199.22;;;16.37;100.00
20156;BME280;10238;49.556;10.956;2023-07-31T01:48:01;98195.50;;;16.38;100.00
20156;BME280;10238;49.556;10.956;2023-07-31T01:50:49;98194.03;;;16.35;100.00
20156;BME280;10238;49.556;10.956;2023-07-31T01:53:37;98194.03;;;16.35;100.00
20156;BME280;10238;49.556;10.956;2023-07-31T01:56:24;98178.78;;;16.36;100.00
20156;BME280;10238;49.556;10.956;2023-07-31T01:59:12;98179.59;;;16.36;100.00
20156;BME280;10238;49.556;10.956;2023-07-31T02:02:01;98177.94;;;16.35;100.00
20156;BME280;10238;49.556;10.956;2023-07-31T02:04:49;98175.47;;;16.34;100.00
20156;BME280;10238;49.556;10.956;2023-07-31T02:07:37;98164.72;;;16.34;100.00
20156;BME280;10238;49.556;10.956;2023-07-31T02:10:24;98173.63;;;16.34;100.00
20156;BME280;10238;49.556;10.956;2023-07-31T02:13:12;98167.81;;;16.31;100.00
20156;BME280;10238;49.556;10.956;2023-07-31T02:16:00;98164.91;;;16.32;100.00
20156;BME280;10238;49.556;10.956;2023-07-31T02:18:49;98163.28;;;16.31;100.00
20156;BME280;10238;49.556;10.956;2023-07-31T02:21:37;98158.50;;;16.27;100.00
20156;BME280;10238;49.556;10.956;2023-07-31T02:24:24;98157.03;;;16.24;100.00
20156;BME280;10238;49.556;10.956;2023-07-31T02:27:12;98146.31;;;16.24;100.00
20156;BME280;10238;49.556;10.956;2023-07-31T02:30:00;98162.22;;;16.26;100.00
20156;BME280;10238;49.556;10.956;2023-07-31T02:32:47;98160.53;;;16.25;100.00
20156;BME280;10238;49.556;10.956;2023-07-31T02:35:36;98153.91;;;16.21;100.00
20156;BME280;10238;49.556;10.956;2023-07-31T02:38:24;98149.75;;;16.18;100.00
20156;BME280;10238;49.556;10.956;2023-07-31T02:41:13;98161.31;;;16.19;100.00
20156;BME280;10238;49.556;10.956;2023-07-31T02:44:00;98159.84;;;16.16;100.00
20156;BME280;10238;49.556;10.956;2023-07-31T02:46:47;98160.88;;;16.15;100.00
20156;BME280;10238;49.556;10.956;2023-07-31T02:49:35;98171.16;;;16.12;100.00
20156;BME280;10238;49.556;10.956;2023-07-31T02:52:24;98167.84;;;16.10;100.00
20156;BME280;10238;49.556;10.956;2023-07-31T02:55:12;98171.72;;;16.07;100.00
20156;BME280;10238;49.556;10.956;2023-07-31T02:57:59;98171.94;;;16.06;100.00
20156;BME280;10238;49.556;10.956;2023-07-31T03:00:47;98161.19;;;16.06;100.00
20156;BME280;10238;49.556;10.956;2023-07-31T03:03:35;98160.00;;;16.08;100.00
20156;BME280;10238;49.556;10.956;2023-07-31T03:06:23;98159.81;;;16.10;100.00
20156;BME280;10238;49.556;10.956;2023-07-31T03:09:13;98160.81;;;16.09;100.00
20156;BME280;10238;49.556;10.956;2023-07-31T03:12:01;98164.34;;;16.09;100.00
20156;BME280;10238;49.556;10.956;2023-07-31T03:14:49;98160.81;;;16.09;100.00
20156;BME280;10238;49.556;10.956;2023-07-31T03:17:37;98163.88;;;16.06;100.00
20156;BME280;10238;49.556;10.956;2023-07-31T03:20:24;98169.25;;;16.06;100.00
20156;BME280;10238;49.556;10.956;2023-07-31T03:23:12;98155.03;;;16.05;100.00
20156;BME280;10238;49.556;10.956;2023-07-31T03:26:06;98160.59;;;16.04;100.00
20156;BME280;10238;49.556;10.956;2023-07-31T03:28:54;98158.28;;;16.01;100.00
20156;BME280;10238;49.556;10.956;2023-07-31T03:31:42;98154.13;;;15.98;100.00
20156;BME280;10238;49.556;10.956;2023-07-31T03:34:29;98160.28;;;15.92;100.00
20156;BME280;10238;49.556;10.956;2023-07-31T03:37:18;98156.13;;;15.90;100.00
20156;BME280;10238;49.556;10.956;2023-07-31T03:40:07;98165.94;;;15.83;100.00
20156;BME280;10238;49.556;10.956;2023-07-31T03:42:56;98163.41;;;15.75;100.00
20156;BME280;10238;49.556;10.956;2023-07-31T03:45:44;98166.09;;;15.75;100.00
20156;BME280;10238;49.556;10.956;2023-07-31T03:48:32;98164.38;;;15.67;100.00
20156;BME280;10238;49.556;10.956;2023-07-31T03:51:19;98166.59;;;15.64;100.00
20156;BME280;10238;49.556;10.956;2023-07-31T03:54:07;98165.31;;;15.60;100.00
20156;BME280;10238;49.556;10.956;2023-07-31T03:56:54;98167.16;;;15.59;100.00
20156;BME280;10238;49.556;10.956;2023-07-31T03:59:43;98167.34;;;15.58;100.00
20156;BME280;10238;49.556;10.956;2023-07-31T04:02:31;98165.31;;;15.60;100.00
20156;BME280;10238;49.556;10.956;2023-07-31T04:05:19;98162.44;;;15.61;100.00
20156;BME280;10238;49.556;10.956;2023-07-31T04:08:06;98155.88;;;15.64;100.00
20156;BME280;10238;49.556;10.956;2023-07-31T04:10:54;98151.53;;;15.63;100.00
20156;BME280;10238;49.556;10.956;2023-07-31T04:13:42;98157.47;;;15.58;100.00
20156;BME280;10238;49.556;10.956;2023-07-31T04:16:31;98160.34;;;15.57;100.00
20156;BME280;10238;49.556;10.956;2023-07-31T04:19:19;98162.38;;;15.55;100.00
20156;BME280;10238;49.556;10.956;2023-07-31T04:22:07;98159.88;;;15.53;100.00
20156;BME280;10238;49.556;10.956;2023-07-31T04:24:54;98162.38;;;15.55;100.00
20156;BME280;10238;49.556;10.956;2023-07-31T04:27:42;98160.25;;;15.50;100.00
20156;BME280;10238;49.556;10.956;2023-07-31T04:30:29;98168.06;;;15.45;100.00
20156;BME280;10238;49.556;10.956;2023-07-31T04:33:18;98162.22;;;15.42;100.00
20156;BME280;10238;49.556;10.956;2023-07-31T04:36:06;98154.19;;;15.42;100.00
20156;BME280;10238;49.556;10.956;2023-07-31T04:38:54;98157.25;;;15.39;100.00
20156;BME280;10238;49.556;10.956;2023-07-31T04:41:41;98147.56;;;15.38;100.00
20156;BME280;10238;49.556;10.956;2023-07-31T04:44:29;98140.19;;;15.40;100.00
20156;BME280;10238;49.556;10.956;2023-07-31T04:47:16;98140.19;;;15.40;100.00
20156;BME280;10238;49.556;10.956;2023-07-31T04:50:08;98137.50;;;15.40;100.00
20156;BME280;10238;49.556;10.956;2023-07-31T04:52:56;98143.66;;;15.40;100.00
20156;BME280;10238;49.556;10.956;2023-07-31T04:55:44;98148.22;;;15.40;100.00
20156;BME280;10238;49.556;10.956;2023-07-31T04:58:32;98135.72;;;15.47;100.00
20156;BME280;10238;49.556;10.956;2023-07-31T05:01:20;98137.44;;;15.54;100.00
20156;BME280;10238;49.556;10.956;2023-07-31T05:04:08;98151.72;;;15.61;100.00
20156;BME280;10238;49.556;10.956;2023-07-31T05:06:57;98155.50;;;15.67;100.00
20156;BME280;10238;49.556;10.956;2023-07-31T05:09:45;98157.22;;;15.74;100.00
20156;BME280;10238;49.556;10.956;2023-07-31T05:12:33;98152.53;;;15.83;100.00
20156;BME280;10238;49.556;10.956;2023-07-31T05:15:20;98147.00;;;15.84;100.00
20156;BME280;10238;49.556;10.956;2023-07-31T05:18:08;98156.13;;;15.90;100.00
20156;BME280;10238;49.556;10.956;2023-07-31T05:20:56;98155.34;;;15.96;100.00
20156;BME280;10238;49.556;10.956;2023-07-31T05:23:45;98157.44;;;16.00;100.00
20156;BME280;10238;49.556;10.956;2023-07-31T05:26:36;98165.56;;;16.07;100.00
20156;BME280;10238;49.556;10.956;2023-07-31T05:29:25;98167.44;;;16.13;100.00
20156;BME280;10238;49.556;10.956;2023-07-31T05:32:12;98161.09;;;16.20;100.00
20156;BME280;10238;49.556;10.956;2023-07-31T05:35:00;98161.19;;;16.27;100.00
20156;BME280;10238;49.556;10.956;2023-07-31T05:37:48;98154.00;;;16.34;100.00
20156;BME280;10238;49.556;10.956;2023-07-31T05:40:38;98160.22;;;16.41;100.00
20156;BME280;10238;49.556;10.956;2023-07-31T05:43:25;98151.63;;;16.45;100.00
20156;BME280;10238;49.556;10.956;2023-07-31T05:46:13;98150.00;;;16.51;100.00
20156;BME280;10238;49.556;10.956;2023-07-31T05:49:01;98144.31;;;16.60;100.00
20156;BME280;10238;49.556;10.956;2023-07-31T05:51:48;98133.84;;;16.72;100.00
20156;BME280;10238;49.556;10.956;2023-07-31T05:54:36;98139.47;;;16.83;100.00
20156;BME280;10238;49.556;10.956;2023-07-31T05:57:25;98128.59;;;16.98;100.00
20156;BME280;10238;49.556;10.956;2023-07-31T06:00:14;98121.41;;;17.11;100.00
20156;BME280;10238;49.556;10.956;2023-07-31T06:03:02;98120.81;;;17.22;100.00
20156;BME280;10238;49.556;10.956;2023-07-31T06:05:51;98121.47;;;17.31;100.00
20156;BME280;10238;49.556;10.956;2023-07-31T06:08:38;98120.84;;;17.29;100.00
20156;BME280;10238;49.556;10.956;2023-07-31T06:11:26;98117.34;;;17.35;100.00
20156;BME280;10238;49.556;10.956;2023-07-31T06:14:15;98138.03;;;17.41;100.00
20156;BME280;10238;49.556;10.956;2023-07-31T06:17:04;98130.63;;;17.43;100.00
20156;BME280;10238;49.556;10.956;2023-07-31T06:19:52;98127.56;;;17.53;100.00
20156;BME280;10238;49.556;10.956;2023-07-31T06:22:40;98130.66;;;17.63;100.00
20156;BME280;10238;49.556;10.956;2023-07-31T06:25:27;98130.91;;;17.68;100.00
20156;BME280;10238;49.556;10.956;2023-07-31T06:28:15;98130.28;;;17.79;100.00
20156;BME280;10238;49.556;10.956;2023-07-31T06:31:04;98123.06;;;17.92;100.00
20156;BME280;10238;49.556;10.956;2023-07-31T06:33:52;98118.09;;;18.02;100.00
20156;BME280;10238;49.556;10.956;2023-07-31T06:36:40;98130.69;;;18.15;100.00
20156;BME280;10238;49.556;10.956;2023-07-31T06:39:28;98120.75;;;18.28;100.00
20156;BME280;10238;49.556;10.956;2023-07-31T06:42:15;98112.50;;;18.36;100.00
20156;BME280;10238;49.556;10.956;2023-07-31T06:45:03;98113.69;;;18.47;100.00
20156;BME280;10238;49.556;10.956;2023-07-31T06:47:53;98107.06;;;18.62;100.00
20156;BME280;10238;49.556;10.956;2023-07-31T06:50:40;98107.81;;;18.76;100.00
20156;BME280;10238;49.556;10.956;2023-07-31T06:53:28;98112.56;;;18.87;100.00
20156;BME280;10238;49.556;10.956;2023-07-31T06:56:16;98108.97;;;18.99;100.00
20156;BME280;10238;49.556;10.956;2023-07-31T06:59:04;98105.63;;;19.10;100.00
20156;BME280;10238;49.556;10.956;2023-07-31T07:01:52;98111.59;;;19.25;100.00
20156;BME280;10238;49.556;10.956;2023-07-31T07:04:40;98110.50;;;19.33;100.00
20156;BME280;10238;49.556;10.956;2023-07-31T07:07:28;98112.97;;;19.41;100.00
20156;BME280;10238;49.556;10.956;2023-07-31T07:10:16;98106.50;;;19.49;100.00
20156;BME280;10238;49.556;10.956;2023-07-31T07:13:04;98102.94;;;19.55;100.00
20156;BME280;10238;49.556;10.956;2023-07-31T07:15:52;98102.06;;;19.61;100.00
20156;BME280;10238;49.556;10.956;2023-07-31T07:18:40;98101.53;;;19.77;100.00
20156;BME280;10238;49.556;10.956;2023-07-31T07:21:49;98103.09;;;19.91;100.00
20156;BME280;10238;49.556;10.956;2023-07-31T07:24:37;98101.00;;;19.93;100.00
20156;BME280;10238;49.556;10.956;2023-07-31T07:27:25;98115.06;;;19.95;100.00
20156;BME280;10238;49.556;10.956;2023-07-31T07:30:12;98098.44;;;19.98;100.00
20156;BME280;10238;49.556;10.956;2023-07-31T07:33:01;98100.28;;;20.04;100.00
20156;BME280;10238;49.556;10.956;2023-07-31T07:35:49;98099.06;;;20.00;100.00
20156;BME280;10238;49.556;10.956;2023-07-31T07:38:42;98094.88;;;20.04;100.00
20156;BME280;10238;49.556;10.956;2023-07-31T07:41:30;98097.78;;;20.02;100.00
20156;BME280;10238;49.556;10.956;2023-07-31T07:44:22;98103.81;;;20.04;100.00
20156;BME280;10238;49.556;10.956;2023-07-31T07:47:26;98100.88;;;20.06;100.00
20156;BME280;10238;49.556;10.956;2023-07-31T07:50:15;98090.34;;;19.98;100.00
20156;BME280;10238;49.556;10.956;2023-07-31T07:53:02;98090.53;;;20.03;100.00
20156;BME280;10238;49.556;10.956;2023-07-31T07:55:52;98088.81;;;20.15;100.00
20156;BME280;10238;49.556;10.956;2023-07-31T07:58:40;98082.13;;;20.17;100.00
20156;BME280;10238;49.556;10.956;2023-07-31T08:01:27;98073.91;;;20.06;100.00
20156;BME280;10238;49.556;10.956;2023-07-31T08:04:15;98082.13;;;20.11;100.00
20156;BME280;10238;49.556;10.956;2023-07-31T08:07:03;98090.31;;;20.29;100.00
20156;BME280;10238;49.556;10.956;2023-07-31T08:09:52;98088.47;;;20.47;100.00
20156;BME280;10238;49.556;10.956;2023-07-31T08:12:41;98076.63;;;20.66;100.00
20156;BME280;10238;49.556;10.956;2023-07-31T08:15:29;98081.81;;;20.86;100.00
20156;BME280;10238;49.556;10.956;2023-07-31T08:18:16;98077.91;;;21.00;100.00
20156;BME280;10238;49.556;10.956;2023-07-31T08:21:05;98080.91;;;20.92;100.00
20156;BME280;10238;49.556;10.956;2023-07-31T08:23:53;98074.66;;;20.91;100.00
20156;BME280;10238;49.556;10.956;2023-07-31T08:26:40;98070.47;;;20.95;100.00
20156;BME280;10238;49.556;10.956;2023-07-31T08:29:30;98061.69;;;21.00;100.00
